createdAt,value
2022-10-28T00:01:28.186Z,90.89
2022-10-28T00:04:04.991Z,90.95
2022-10-28T00:06:41.100Z,90.97
2022-10-28T00:09:16.953Z,90.91
2022-10-28T00:11:52.785Z,90.95
2022-10-28T00:14:29.103Z,91.04
2022-10-28T00:17:04.986Z,91.11
2022-10-28T00:19:40.997Z,91.14
2022-10-28T00:22:16.959Z,91.18
2022-10-28T00:24:52.691Z,91.21
2022-10-28T00:27:29.923Z,91.21
2022-10-28T00:30:08.874Z,91.22
2022-10-28T00:32:44.854Z,91.24
2022-10-28T00:35:21.221Z,91.27
2022-10-28T00:37:59.947Z,91.27
2022-10-28T00:40:39.256Z,91.28
2022-10-28T00:43:17.211Z,91.30
2022-10-28T00:45:53.126Z,91.29
2022-10-28T00:48:29.102Z,91.26
2022-10-28T00:51:06.289Z,91.24
2022-10-28T00:53:48.284Z,91.22
2022-10-28T00:59:19.314Z,91.24
2022-10-28T01:01:55.703Z,91.21
2022-10-28T01:04:32.159Z,91.22
2022-10-28T01:07:08.342Z,91.17
2022-10-28T01:09:44.917Z,91.14
2022-10-28T01:12:34.462Z,91.13
2022-10-28T01:15:29.356Z,91.17
2022-10-28T01:18:16.867Z,91.21
2022-10-28T01:21:47.225Z,91.28
2022-10-28T01:24:48.231Z,91.34
2022-10-28T01:28:04.468Z,91.36
2022-10-28T01:31:24.736Z,91.39
2022-10-28T01:34:20.752Z,91.43
2022-10-28T01:37:09.755Z,91.50
2022-10-28T01:40:01.110Z,91.55
2022-10-28T01:42:46.215Z,91.60
2022-10-28T01:45:30.828Z,91.62
2022-10-28T01:48:13.687Z,91.63
2022-10-28T01:50:59.138Z,91.64
2022-10-28T01:53:41.788Z,91.64
2022-10-28T01:56:26.255Z,91.64
2022-10-28T01:59:07.652Z,91.66
2022-10-28T02:01:43.692Z,91.68
2022-10-28T02:04:19.984Z,91.68
2022-10-28T02:07:00.846Z,91.70
2022-10-28T02:09:59.203Z,91.70
2022-10-28T02:12:39.848Z,91.72
2022-10-28T02:15:41.333Z,91.75
2022-10-28T02:18:33.835Z,91.76
2022-10-28T02:21:19.386Z,91.75
2022-10-28T02:24:09.509Z,91.78
2022-10-28T02:26:53.204Z,91.78
2022-10-28T02:29:39.914Z,91.75
2022-10-28T02:32:22.602Z,91.73
2022-10-28T02:35:02.917Z,91.72
2022-10-28T02:37:41.980Z,91.69
2022-10-28T02:40:26.043Z,91.65
2022-10-28T02:43:08.395Z,91.58
2022-10-28T02:45:48.843Z,91.55
2022-10-28T02:48:32.561Z,91.53
2022-10-28T02:51:17.905Z,91.54
2022-10-28T02:54:05.772Z,91.55
2022-10-28T02:56:49.622Z,91.57
2022-10-28T02:59:29.716Z,91.58
2022-10-28T03:02:06.455Z,91.62
2022-10-28T03:04:42.490Z,91.67
2022-10-28T03:07:18.350Z,91.74
2022-10-28T03:09:54.678Z,91.82
2022-10-28T03:12:30.467Z,91.86
2022-10-28T03:15:07.629Z,91.89
2022-10-28T03:17:44.194Z,91.94
2022-10-28T03:20:20.195Z,91.96
2022-10-28T03:22:56.611Z,92.01
2022-10-28T03:25:32.725Z,92.05
2022-10-28T03:28:09.066Z,92.10
2022-10-28T03:30:44.826Z,92.13
2022-10-28T03:33:20.598Z,92.14
2022-10-28T03:35:56.298Z,92.16
2022-10-28T03:38:32.133Z,92.18
2022-10-28T03:41:08.243Z,92.19
2022-10-28T03:43:44.276Z,92.19
2022-10-28T03:46:20.105Z,92.21
2022-10-28T03:48:56.216Z,92.19
2022-10-28T03:51:32.075Z,92.19
2022-10-28T03:54:08.324Z,92.21
2022-10-28T03:56:44.284Z,92.21
2022-10-28T03:59:20.461Z,92.27
2022-10-28T04:01:56.489Z,92.32
2022-10-28T04:04:32.366Z,92.35
2022-10-28T04:07:08.029Z,92.34
2022-10-28T04:09:43.905Z,92.37
2022-10-28T04:12:20.152Z,92.38
2022-10-28T04:14:55.975Z,92.40
2022-10-28T04:17:31.845Z,92.39
2022-10-28T04:20:10.064Z,92.37
2022-10-28T04:22:46.011Z,92.37
2022-10-28T04:25:22.174Z,92.36
2022-10-28T04:27:58.252Z,92.35
2022-10-28T04:30:33.972Z,92.32
2022-10-28T04:33:10.344Z,92.30
2022-10-28T04:35:46.502Z,92.28
2022-10-28T04:38:22.342Z,92.25
2022-10-28T04:40:58.416Z,92.23
2022-10-28T04:43:34.261Z,92.24
2022-10-28T04:46:10.561Z,92.25
2022-10-28T04:48:47.724Z,92.27
2022-10-28T04:51:23.481Z,92.30
2022-10-28T04:53:59.326Z,92.30
2022-10-28T04:56:35.283Z,92.28
2022-10-28T04:59:11.122Z,92.27
2022-10-28T05:01:47.127Z,92.26
2022-10-28T05:04:22.984Z,92.37
2022-10-28T05:06:58.805Z,92.32
2022-10-28T05:09:34.759Z,92.29
2022-10-28T05:12:11.413Z,92.30
2022-10-28T05:14:48.995Z,92.30
2022-10-28T05:17:27.106Z,92.28
2022-10-28T05:20:02.889Z,92.27
2022-10-28T05:22:38.871Z,92.28
2022-10-28T05:25:15.217Z,92.29
2022-10-28T05:27:51.268Z,92.31
2022-10-28T05:30:27.429Z,92.34
2022-10-28T05:33:06.861Z,92.37
2022-10-28T05:35:43.106Z,92.42
2022-10-28T05:38:19.085Z,92.46
2022-10-28T05:40:55.044Z,92.49
2022-10-28T05:43:30.981Z,92.53
2022-10-28T05:46:06.851Z,92.54
2022-10-28T05:48:42.604Z,92.55
2022-10-28T05:51:18.504Z,92.60
2022-10-28T05:53:54.793Z,92.62
2022-10-28T05:56:30.986Z,92.66
2022-10-28T05:59:07.046Z,92.70
2022-10-28T06:01:43.303Z,92.77
2022-10-28T06:04:19.207Z,92.81
2022-10-28T06:06:57.305Z,92.79
2022-10-28T06:09:34.863Z,92.80
2022-10-28T06:12:10.413Z,92.72
2022-10-28T06:14:46.369Z,92.73
2022-10-28T06:17:23.082Z,92.69
2022-10-28T06:19:58.907Z,92.60
2022-10-28T06:22:34.764Z,92.52
2022-10-28T06:25:11.964Z,92.36
2022-10-28T06:27:53.762Z,92.24
2022-10-28T06:30:30.832Z,92.06
2022-10-28T06:33:06.670Z,91.85
2022-10-28T06:35:42.834Z,91.66
2022-10-28T06:38:20.870Z,91.59
2022-10-28T06:40:58.899Z,91.37
2022-10-28T06:43:34.709Z,91.06
2022-10-28T06:46:10.738Z,90.84
2022-10-28T06:48:48.054Z,90.56
2022-10-28T06:51:24.535Z,90.33
2022-10-28T06:54:00.877Z,90.14
2022-10-28T06:56:36.814Z,89.94
2022-10-28T06:59:13.082Z,89.62
2022-10-28T07:01:49.251Z,89.30
2022-10-28T07:04:25.433Z,89.22
2022-10-28T07:07:02.348Z,88.95
2022-10-28T07:09:39.713Z,88.81
2022-10-28T07:12:15.729Z,88.85
2022-10-28T07:14:51.572Z,87.67
2022-10-28T07:17:28.156Z,85.00
2022-10-28T07:20:04.192Z,83.03
2022-10-28T07:22:39.863Z,81.25
2022-10-28T07:25:16.296Z,80.24
2022-10-28T07:27:52.252Z,77.42
2022-10-28T07:30:29.516Z,74.70
2022-10-28T07:33:07.103Z,73.61
2022-10-28T07:35:44.508Z,70.24
2022-10-28T07:38:20.212Z,70.00
2022-10-28T07:40:56.069Z,68.34
2022-10-28T07:43:31.867Z,68.25
2022-10-28T07:46:09.195Z,67.79
2022-10-28T07:48:46.131Z,67.00
2022-10-28T07:51:21.900Z,66.48
2022-10-28T07:53:58.278Z,66.24
2022-10-28T07:56:34.101Z,65.32
2022-10-28T07:59:10.059Z,65.12
2022-10-28T08:01:46.032Z,65.39
2022-10-28T08:04:22.063Z,65.26
2022-10-28T08:06:57.795Z,65.96
2022-10-28T08:09:33.866Z,65.68
2022-10-28T08:12:13.949Z,65.96
2022-10-28T08:14:50.124Z,65.41
2022-10-28T08:17:25.837Z,65.51
2022-10-28T08:20:01.685Z,65.82
2022-10-28T08:22:38.261Z,65.48
2022-10-28T08:25:15.282Z,65.45
2022-10-28T08:27:51.001Z,65.38
2022-10-28T08:30:27.051Z,65.53
2022-10-28T08:33:02.877Z,65.29
2022-10-28T08:35:38.829Z,64.91
2022-10-28T08:38:14.789Z,64.48
2022-10-28T08:41:04.456Z,64.87
2022-10-28T08:44:01.825Z,64.53
2022-10-28T08:47:03.177Z,64.74
2022-10-28T08:49:45.716Z,64.94
2022-10-28T08:52:38.139Z,65.40
2022-10-28T08:55:23.832Z,65.19
2022-10-28T08:58:07.781Z,64.90
2022-10-28T09:00:47.200Z,65.06
2022-10-28T09:03:27.420Z,65.06
2022-10-28T09:06:08.964Z,65.32
2022-10-28T09:08:46.488Z,65.63
2022-10-28T09:11:59.125Z,66.25
2022-10-28T09:15:02.525Z,65.42
2022-10-28T09:17:55.967Z,64.99
2022-10-28T09:20:51.198Z,65.15
2022-10-28T09:23:34.781Z,64.95
2022-10-28T09:26:29.217Z,65.12
2022-10-28T09:29:23.284Z,65.09
2022-10-28T09:32:08.727Z,65.23
2022-10-28T09:34:52.626Z,65.61
2022-10-28T09:37:36.093Z,65.66
2022-10-28T09:40:23.689Z,65.38
2022-10-28T09:43:12.902Z,65.55
2022-10-28T09:45:53.336Z,65.40
2022-10-28T09:48:35.236Z,65.44
2022-10-28T09:51:28.320Z,65.62
2022-10-28T09:54:04.796Z,64.95
2022-10-28T09:56:41.451Z,64.98
2022-10-28T09:59:19.173Z,65.01
2022-10-28T10:01:55.381Z,64.76
2022-10-28T10:04:33.044Z,64.61
2022-10-28T10:07:18.960Z,64.55
2022-10-28T10:09:55.043Z,64.50
2022-10-28T10:12:32.790Z,64.42
2022-10-28T10:15:17.032Z,64.25
2022-10-28T10:17:54.669Z,64.58
2022-10-28T10:20:46.148Z,64.50
2022-10-28T10:23:34.437Z,64.39
2022-10-28T10:26:14.665Z,64.46
2022-10-28T10:28:54.181Z,64.64
2022-10-28T10:31:32.013Z,64.69
2022-10-28T10:34:14.988Z,64.70
2022-10-28T10:36:57.740Z,64.64
2022-10-28T10:39:38.938Z,63.94
2022-10-28T10:42:27.498Z,63.81
2022-10-28T10:45:27.638Z,64.08
2022-10-28T10:48:18.803Z,64.20
2022-10-28T10:50:55.687Z,66.65
2022-10-28T10:53:33.995Z,64.40
2022-10-28T10:56:15.737Z,63.31
2022-10-28T10:58:58.244Z,62.87
2022-10-28T11:01:40.351Z,62.75
2022-10-28T11:04:25.510Z,62.80
2022-10-28T11:07:02.174Z,62.48
2022-10-28T11:09:43.268Z,62.28
2022-10-28T11:12:32.037Z,62.50
2022-10-28T11:15:24.544Z,62.30
2022-10-28T11:18:20.694Z,61.73
2022-10-28T11:21:06.570Z,61.81
2022-10-28T11:24:00.773Z,61.63
2022-10-28T11:26:46.130Z,61.82
2022-10-28T11:29:22.484Z,61.92
2022-10-28T11:32:26.329Z,61.05
2022-10-28T11:35:29.907Z,60.77
2022-10-28T11:38:25.835Z,60.68
2022-10-28T11:41:25.128Z,60.94
2022-10-28T11:44:05.553Z,60.81
2022-10-28T11:46:53.681Z,60.55
2022-10-28T11:50:05.344Z,60.29
2022-10-28T11:53:18.869Z,60.61
2022-10-28T11:56:04.866Z,61.00
2022-10-28T11:58:57.537Z,60.35
2022-10-28T12:01:51.682Z,59.99
2022-10-28T12:04:59.424Z,59.93
2022-10-28T12:08:11.681Z,59.38
2022-10-28T12:11:11.684Z,59.36
2022-10-28T12:13:59.541Z,59.01
2022-10-28T12:16:45.558Z,59.24
2022-10-28T12:19:27.136Z,58.98
2022-10-28T12:22:07.812Z,58.86
2022-10-28T12:24:47.787Z,59.83
2022-10-28T12:27:31.750Z,58.74
2022-10-28T12:30:21.464Z,58.32
2022-10-28T12:33:05.996Z,58.47
2022-10-28T12:35:49.889Z,58.08
2022-10-28T12:38:35.759Z,58.28
2022-10-28T12:41:19.825Z,57.96
2022-10-28T12:44:02.782Z,57.44
2022-10-28T12:46:57.237Z,57.36
2022-10-28T12:49:50.500Z,57.24
2022-10-28T12:52:57.427Z,57.50
2022-10-28T12:55:43.992Z,57.23
2022-10-28T12:58:28.286Z,56.84
2022-10-28T13:01:11.533Z,56.90
2022-10-28T13:03:50.485Z,57.19
2022-10-28T13:07:09.356Z,56.73
2022-10-28T13:10:00.039Z,56.37
2022-10-28T13:13:16.634Z,56.25
2022-10-28T13:16:15.208Z,56.48
2022-10-28T13:19:45.401Z,56.14
2022-10-28T13:22:55.353Z,56.87
2022-10-28T13:26:00.507Z,56.37
2022-10-28T13:28:48.357Z,56.52
2022-10-28T13:31:24.643Z,55.90
2022-10-28T13:34:02.871Z,55.92
2022-10-28T13:36:43.527Z,56.05
2022-10-28T13:39:43.772Z,55.95
2022-10-28T13:42:52.655Z,56.27
2022-10-28T13:45:55.287Z,56.35
2022-10-28T13:49:16.597Z,56.53
2022-10-28T13:52:03.083Z,56.67
2022-10-28T13:54:58.894Z,56.95
2022-10-28T13:57:40.064Z,57.21
2022-10-28T14:00:42.005Z,57.50
2022-10-28T14:03:25.974Z,57.49
2022-10-28T14:06:03.888Z,57.46
2022-10-28T14:08:44.734Z,57.13
2022-10-28T14:11:30.478Z,56.90
2022-10-28T14:14:08.246Z,57.13
2022-10-28T14:16:48.032Z,57.53
2022-10-28T14:19:27.205Z,57.99
2022-10-28T14:22:08.944Z,57.87
2022-10-28T14:24:46.674Z,57.93
2022-10-28T14:27:44.796Z,58.13
2022-10-28T14:30:25.295Z,58.50
2022-10-28T14:33:21.131Z,58.84
2022-10-28T14:36:28.471Z,58.99
2022-10-28T14:39:41.082Z,59.18
2022-10-28T14:45:53.030Z,59.48
2022-10-28T14:48:50.611Z,59.68
2022-10-28T14:51:31.428Z,59.93
2022-10-28T14:54:17.006Z,60.39
2022-10-28T14:56:57.635Z,60.60
2022-10-28T14:59:41.838Z,61.00
2022-10-28T15:02:24.220Z,61.35
2022-10-28T15:05:18.360Z,61.68
2022-10-28T15:07:58.177Z,62.00
2022-10-28T15:10:38.289Z,62.48
2022-10-28T15:13:22.280Z,62.90
2022-10-28T15:15:59.476Z,63.18
2022-10-28T15:18:38.144Z,63.13
2022-10-28T15:21:19.195Z,63.64
2022-10-28T15:24:09.246Z,64.05
2022-10-28T15:26:45.503Z,64.45
2022-10-28T15:29:21.395Z,64.94
2022-10-28T15:32:26.858Z,65.39
2022-10-28T15:35:24.027Z,65.76
2022-10-28T15:38:03.379Z,66.13
2022-10-28T15:40:39.861Z,66.66
2022-10-28T15:43:26.183Z,67.09
2022-10-28T15:46:17.566Z,67.42
2022-10-28T15:48:58.244Z,67.98
2022-10-28T15:51:34.205Z,68.42
2022-10-28T15:54:23.381Z,68.82
2022-10-28T15:57:01.208Z,69.25
2022-10-28T15:59:37.141Z,69.78
2022-10-28T16:02:46.085Z,70.26
2022-10-28T16:05:59.146Z,70.63
2022-10-28T16:08:36.525Z,71.28
2022-10-28T16:11:21.243Z,72.14
2022-10-28T16:13:58.130Z,72.56
2022-10-28T16:16:35.328Z,73.09
2022-10-28T16:19:26.563Z,73.66
2022-10-28T16:22:02.366Z,74.06
2022-10-28T16:24:38.312Z,74.31
2022-10-28T16:27:29.819Z,74.69
2022-10-28T16:30:06.747Z,74.99
2022-10-28T16:32:48.655Z,75.33
2022-10-28T16:35:26.633Z,75.51
2022-10-28T16:38:03.020Z,75.68
2022-10-28T16:40:51.470Z,75.74
2022-10-28T16:43:30.732Z,75.88
2022-10-28T16:46:06.962Z,76.24
2022-10-28T16:48:43.263Z,76.61
2022-10-28T16:51:20.538Z,77.00
2022-10-28T16:53:56.842Z,77.38
2022-10-28T16:56:32.853Z,77.99
2022-10-28T16:59:08.741Z,78.41
2022-10-28T17:01:44.613Z,78.81
2022-10-28T17:04:20.444Z,79.20
2022-10-28T17:06:56.561Z,79.29
2022-10-28T17:09:32.849Z,79.42
2022-10-28T17:12:12.975Z,79.55
2022-10-28T17:14:49.517Z,79.77
2022-10-28T17:17:25.499Z,79.75
2022-10-28T17:20:01.587Z,79.89
2022-10-28T17:22:39.871Z,80.10
2022-10-28T17:25:16.325Z,80.32
2022-10-28T17:27:53.552Z,80.58
2022-10-28T17:30:29.862Z,80.86
2022-10-28T17:33:06.082Z,81.19
2022-10-28T17:35:42.007Z,81.46
2022-10-28T17:38:17.999Z,81.82
2022-10-28T17:41:00.624Z,82.13
2022-10-28T17:43:37.139Z,82.46
2022-10-28T17:46:14.024Z,82.74
2022-10-28T17:48:49.776Z,82.95
2022-10-28T17:51:25.833Z,83.14
2022-10-28T17:54:01.918Z,83.47
2022-10-28T17:56:39.364Z,83.78
2022-10-28T17:59:15.444Z,84.01
2022-10-28T18:01:51.506Z,84.26
2022-10-28T18:04:28.102Z,84.48
2022-10-28T18:07:03.927Z,84.74
2022-10-28T18:09:40.814Z,84.95
2022-10-28T18:12:16.683Z,85.09
2022-10-28T18:14:52.717Z,85.26
2022-10-28T18:17:28.528Z,85.33
2022-10-28T18:20:04.449Z,85.35
2022-10-28T18:22:40.389Z,85.39
2022-10-28T18:25:16.499Z,85.44
2022-10-28T18:27:52.866Z,85.47
2022-10-28T18:30:29.073Z,85.56
2022-10-28T18:33:05.168Z,85.62
2022-10-28T18:35:41.546Z,85.65
2022-10-28T18:38:17.660Z,85.83
2022-10-28T18:40:53.533Z,86.01
2022-10-28T18:43:29.877Z,86.12
2022-10-28T18:46:07.811Z,86.29
2022-10-28T18:48:44.276Z,86.51
2022-10-28T18:51:20.643Z,86.73
2022-10-28T18:53:57.399Z,86.92
2022-10-28T18:56:34.414Z,87.10
2022-10-28T18:59:11.686Z,87.21
2022-10-28T19:01:48.424Z,87.38
2022-10-28T19:04:28.654Z,87.56
2022-10-28T19:07:05.835Z,87.64
2022-10-28T19:09:41.825Z,87.75
2022-10-28T19:12:17.718Z,87.82
2022-10-28T19:14:53.599Z,87.88
2022-10-28T19:17:29.535Z,87.92
2022-10-28T19:20:06.393Z,88.02
2022-10-28T19:22:42.322Z,88.09
2022-10-28T19:25:18.697Z,88.22
2022-10-28T19:27:54.537Z,88.36
2022-10-28T19:30:30.594Z,88.49
2022-10-28T19:33:06.605Z,88.58
2022-10-28T19:35:42.487Z,88.59
2022-10-28T19:38:18.328Z,88.70
2022-10-28T19:40:54.537Z,88.86
2022-10-28T19:43:30.433Z,89.01
2022-10-28T19:46:16.637Z,89.15
2022-10-28T19:48:57.103Z,89.27
2022-10-28T19:51:35.437Z,89.41
2022-10-28T19:54:15.093Z,89.53
2022-10-28T19:56:51.354Z,89.62
2022-10-28T19:59:27.272Z,89.69
2022-10-28T20:02:03.287Z,89.76
2022-10-28T20:04:41.544Z,89.80
2022-10-28T20:07:18.914Z,89.81
2022-10-28T20:09:55.829Z,89.86
2022-10-28T20:12:32.428Z,89.90
2022-10-28T20:15:10.360Z,90.01
2022-10-28T20:17:46.499Z,90.09
2022-10-28T20:20:23.611Z,90.18
2022-10-28T20:22:59.669Z,90.25
2022-10-28T20:25:35.787Z,90.30
2022-10-28T20:28:12.163Z,90.48
2022-10-28T20:30:58.335Z,90.71
2022-10-28T20:33:37.673Z,90.91
2022-10-28T20:36:29.346Z,91.06
2022-10-28T20:39:09.279Z,91.23
2022-10-28T20:41:46.841Z,91.45
2022-10-28T20:44:23.621Z,91.59
2022-10-28T20:46:59.412Z,91.72
2022-10-28T20:49:35.261Z,91.85
2022-10-28T20:52:16.540Z,91.99
2022-10-28T20:54:52.465Z,92.17
2022-10-28T20:57:29.357Z,92.24
2022-10-28T21:00:08.093Z,92.27
2022-10-28T21:02:44.055Z,92.36
2022-10-28T21:05:20.097Z,92.45
2022-10-28T21:07:56.007Z,92.52
2022-10-28T21:10:32.318Z,92.56
2022-10-28T21:13:08.962Z,92.59
2022-10-28T21:15:46.887Z,92.59
2022-10-28T21:18:22.882Z,92.62
2022-10-28T21:21:02.882Z,92.64
2022-10-28T21:23:39.027Z,92.70
2022-10-28T21:26:17.108Z,92.73
2022-10-28T21:28:56.463Z,92.79
2022-10-28T21:31:32.502Z,92.83
2022-10-28T21:34:08.749Z,92.84
2022-10-28T21:36:44.537Z,92.85
2022-10-28T21:39:20.418Z,92.86
2022-10-28T21:41:57.378Z,92.91
2022-10-28T21:44:33.228Z,92.93
2022-10-28T21:47:09.291Z,92.98
2022-10-28T21:49:45.070Z,93.03
2022-10-28T21:52:21.715Z,93.09
2022-10-28T21:54:57.563Z,93.15
2022-10-28T21:57:35.309Z,93.17
2022-10-28T22:00:15.418Z,93.18
2022-10-28T22:02:52.025Z,93.20
2022-10-28T22:05:27.956Z,93.25
2022-10-28T22:08:05.069Z,93.31
2022-10-28T22:10:41.081Z,93.38
2022-10-28T22:13:16.936Z,93.41
2022-10-28T22:16:01.189Z,93.46
2022-10-28T22:18:39.311Z,93.50
2022-10-28T22:21:18.793Z,93.51
2022-10-28T22:23:55.467Z,93.58
2022-10-28T22:26:33.649Z,93.64
2022-10-28T22:29:09.874Z,93.69
2022-10-28T22:31:47.085Z,93.74
2022-10-28T22:34:22.906Z,93.77
2022-10-28T22:36:58.583Z,93.82
2022-10-28T22:39:34.360Z,93.86
2022-10-28T22:42:10.367Z,93.83
2022-10-28T22:44:46.282Z,93.83
2022-10-28T22:47:22.179Z,93.87
2022-10-28T22:49:58.139Z,93.89
2022-10-28T22:52:34.078Z,93.92
2022-10-28T22:55:11.559Z,93.91
2022-10-28T22:57:47.445Z,93.92
2022-10-28T23:00:24.518Z,93.95
2022-10-28T23:03:01.738Z,93.95
2022-10-28T23:05:37.666Z,93.98
2022-10-28T23:08:17.419Z,93.96
2022-10-28T23:10:53.306Z,93.95
2022-10-28T23:13:29.489Z,93.94
2022-10-28T23:16:11.595Z,93.94
2022-10-28T23:18:48.124Z,93.95
2022-10-28T23:21:26.548Z,93.95
2022-10-28T23:24:03.540Z,93.92
2022-10-28T23:26:39.469Z,93.89
2022-10-28T23:29:15.292Z,93.87
2022-10-28T23:31:51.096Z,93.83
2022-10-28T23:34:28.273Z,93.82
2022-10-28T23:37:04.124Z,93.81
2022-10-28T23:39:39.936Z,93.79
2022-10-28T23:42:15.724Z,93.74
2022-10-28T23:44:51.535Z,93.71
2022-10-28T23:47:27.480Z,93.70
2022-10-28T23:50:03.165Z,93.72
2022-10-28T23:52:39.205Z,93.77
2022-10-28T23:55:15.602Z,93.75
2022-10-28T23:57:51.465Z,93.75
